Time;durP1;ratioP1;P1;durP2;ratioP2;P2;SDS_P1;SDS_P2;PMS_P1;PMS_P2;Temp;Humidity;BMP_temperature;BMP_pressure;BME280_temperature;BME280_humidity;BME280_pressure;Samples;Min_cycle;Max_cycle;Signal;HPM_P1;HPM_P2
2023/10/20 00:01:51;;;;;;;4.35;3.20;;;;;;;;;;5023959;28;20126;-63
2023/10/20 00:04:17;;;;;;;5.05;2.53;;;;;;;;;;5024133;28;20034;-62
2023/10/20 00:06:44;;;;;;;10.10;3.20;;;;;;;;;;5036612;28;20025;-62
2023/10/20 00:09:18;;;;;;;5.68;3.45;;;;;;;;;;5025299;28;20100;-62
2023/10/20 00:11:45;;;;;;;5.07;2.25;;;;;;;;;;5022490;28;20505;-62
2023/10/20 00:14:11;;;;;;;9.70;2.72;;;;;;;;;;5020485;28;20030;-66
2023/10/20 00:16:37;;;;;;;10.02;2.78;;;;;;;;;;5020851;28;20076;-64
2023/10/20 00:19:03;;;;;;;6.75;2.72;;;;;;;;;;5023841;28;20021;-62
2023/10/20 00:21:30;;;;;;;4.55;2.72;;;;;;;;;;5034123;28;20474;-62
2023/10/20 00:23:56;;;;;;;5.35;3.10;;;;;;;;;;5023069;28;20022;-62
2023/10/20 00:26:22;;;;;;;5.70;3.50;;;;;;;;;;5023977;28;20021;-62
2023/10/20 00:28:48;;;;;;;6.35;4.15;;;;;;;;;;5022914;28;20032;-62
2023/10/20 00:31:16;;;;;;;5.43;2.90;;;;;;;;;;5022561;28;20124;-63
2023/10/20 00:33:43;;;;;;;7.90;3.35;;;;;;;;;;5020906;28;20030;-63
2023/10/20 00:36:09;;;;;;;5.15;2.97;;;;;;;;;;5018609;28;20568;-62
2023/10/20 00:38:35;;;;;;;4.53;2.80;;;;;;;;;;5024601;28;20044;-62
2023/10/20 00:41:01;;;;;;;7.10;3.05;;;;;;;;;;5040260;28;20032;-62
2023/10/20 00:43:40;;;;;;;6.25;3.15;;;;;;;;;;5021472;28;20409;-62
2023/10/20 00:46:08;;;;;;;11.32;3.83;;;;;;;;;;5014393;28;20513;-62
2023/10/20 00:48:35;;;;;;;4.57;3.20;;;;;;;;;;5019653;28;20087;-62
2023/10/20 00:51:02;;;;;;;12.07;3.45;;;;;;;;;;5024255;28;20061;-62
2023/10/20 00:53:29;;;;;;;7.50;2.70;;;;;;;;;;5019038;28;20132;-62
2023/10/20 00:55:58;;;;;;;6.78;2.78;;;;;;;;;;5023282;28;20112;-62
2023/10/20 00:58:28;;;;;;;3.00;2.33;;;;;;;;;;5016535;28;20025;-63
2023/10/20 01:00:54;;;;;;;7.90;3.10;;;;;;;;;;5015404;28;20029;-62
2023/10/20 01:03:22;;;;;;;16.58;3.47;;;;;;;;;;5022008;28;20384;-66
2023/10/20 01:05:48;;;;;;;11.02;3.08;;;;;;;;;;5022330;28;20041;-63
2023/10/20 01:08:14;;;;;;;6.35;2.88;;;;;;;;;;5020190;28;20033;-62
2023/10/20 01:10:41;;;;;;;10.55;3.10;;;;;;;;;;5022288;28;20025;-62
2023/10/20 01:13:08;;;;;;;14.13;3.17;;;;;;;;;;5015104;28;20049;-64
2023/10/20 01:15:34;;;;;;;8.65;3.40;;;;;;;;;;5023183;28;20021;-62
2023/10/20 01:18:00;;;;;;;6.95;3.05;;;;;;;;;;5020474;28;20032;-64
2023/10/20 01:20:26;;;;;;;6.20;3.40;;;;;;;;;;5021483;28;20113;-62
2023/10/20 01:22:53;;;;;;;8.30;3.30;;;;;;;;;;5020108;28;20447;-61
2023/10/20 01:25:19;;;;;;;7.90;2.92;;;;;;;;;;5023528;28;20037;-62
2023/10/20 01:27:45;;;;;;;9.57;2.97;;;;;;;;;;5023018;28;20053;-62
2023/10/20 01:30:12;;;;;;;10.27;3.65;;;;;;;;;;5024661;28;20037;-62
2023/10/20 01:32:38;;;;;;;12.07;3.30;;;;;;;;;;5020854;28;20028;-61
2023/10/20 01:35:05;;;;;;;14.45;3.88;;;;;;;;;;5024344;28;20088;-62
2023/10/20 01:37:31;;;;;;;8.10;3.50;;;;;;;;;;5024374;28;20035;-62
2023/10/20 01:39:57;;;;;;;10.80;4.90;;;;;;;;;;5026712;28;20112;-61
2023/10/20 01:42:23;;;;;;;12.38;3.65;;;;;;;;;;5023717;28;20033;-62
2023/10/20 01:44:49;;;;;;;8.95;3.22;;;;;;;;;;5021229;28;20230;-62
2023/10/20 01:47:15;;;;;;;11.00;3.00;;;;;;;;;;5018691;28;20382;-62
2023/10/20 01:49:41;;;;;;;8.68;3.03;;;;;;;;;;5018547;28;20030;-62
2023/10/20 01:52:07;;;;;;;7.95;2.83;;;;;;;;;;5018582;28;20021;-62
2023/10/20 01:54:34;;;;;;;6.03;3.10;;;;;;;;;;5018983;28;20044;-62
2023/10/20 01:57:00;;;;;;;16.92;3.45;;;;;;;;;;5018628;28;20029;-62
2023/10/20 01:59:26;;;;;;;7.82;3.53;;;;;;;;;;5018180;28;20044;-62
2023/10/20 02:01:52;;;;;;;12.27;3.40;;;;;;;;;;5020604;28;20037;-62
2023/10/20 02:04:18;;;;;;;9.90;2.88;;;;;;;;;;5021437;28;20104;-62
2023/10/20 02:06:44;;;;;;;11.35;2.72;;;;;;;;;;5016817;28;20111;-61
2023/10/20 02:09:11;;;;;;;6.90;2.90;;;;;;;;;;5021076;28;20025;-62
2023/10/20 02:11:37;;;;;;;11.68;3.63;;;;;;;;;;5020061;28;20083;-62
2023/10/20 02:14:03;;;;;;;14.40;3.80;;;;;;;;;;5016648;28;20484;-61
2023/10/20 02:16:30;;;;;;;13.70;3.72;;;;;;;;;;5021662;28;20037;-62
2023/10/20 02:18:56;;;;;;;8.77;3.75;;;;;;;;;;5025340;28;20060;-62
2023/10/20 02:21:23;;;;;;;8.43;3.25;;;;;;;;;;5022692;28;20036;-63
2023/10/20 02:23:49;;;;;;;12.45;3.97;;;;;;;;;;5018417;28;20041;-62
2023/10/20 02:26:15;;;;;;;9.68;3.17;;;;;;;;;;5014501;28;20155;-63
2023/10/20 02:28:41;;;;;;;15.05;3.80;;;;;;;;;;5020504;28;20036;-62
2023/10/20 02:31:12;;;;;;;6.20;2.70;;;;;;;;;;5019865;28;20025;-62
2023/10/20 02:33:38;;;;;;;16.13;4.32;;;;;;;;;;5033831;28;20023;-62
2023/10/20 02:36:05;;;;;;;8.40;3.03;;;;;;;;;;5016523;28;20037;-62
2023/10/20 02:38:31;;;;;;;10.32;2.85;;;;;;;;;;5018917;28;20033;-62
2023/10/20 02:40:57;;;;;;;12.68;3.38;;;;;;;;;;5016936;28;20188;-62
2023/10/20 02:43:23;;;;;;;7.18;3.00;;;;;;;;;;5021191;28;20033;-63
2023/10/20 02:45:55;;;;;;;8.60;3.00;;;;;;;;;;5017177;28;20565;-62
2023/10/20 02:48:21;;;;;;;9.90;4.22;;;;;;;;;;5024008;28;20519;-62
2023/10/20 02:50:47;;;;;;;6.05;3.03;;;;;;;;;;5015608;28;20683;-62
2023/10/20 02:53:14;;;;;;;14.73;3.50;;;;;;;;;;5019266;28;20299;-62
2023/10/20 02:55:43;;;;;;;6.88;2.75;;;;;;;;;;5024364;28;20129;-62
2023/10/20 02:58:13;;;;;;;8.77;2.92;;;;;;;;;;5020638;28;20696;-63
2023/10/20 03:00:45;;;;;;;9.00;3.83;;;;;;;;;;5016893;28;20060;-61
2023/10/20 03:03:13;;;;;;;9.10;3.25;;;;;;;;;;5020041;28;20508;-61
2023/10/20 03:05:41;;;;;;;9.13;3.05;;;;;;;;;;5019973;28;20038;-62
2023/10/20 03:08:08;;;;;;;15.65;4.53;;;;;;;;;;5013987;28;20038;-62
2023/10/20 03:10:35;;;;;;;12.07;3.45;;;;;;;;;;5021179;28;20552;-62
2023/10/20 03:13:01;;;;;;;10.23;3.33;;;;;;;;;;5021222;28;20030;-63
2023/10/20 03:15:27;;;;;;;11.88;3.58;;;;;;;;;;5025233;28;20036;-62
2023/10/20 03:17:53;;;;;;;8.15;3.65;;;;;;;;;;5017997;28;20033;-62
2023/10/20 03:20:24;;;;;;;14.07;3.38;;;;;;;;;;5021841;28;20141;-62
2023/10/20 03:22:52;;;;;;;11.63;3.30;;;;;;;;;;5020504;28;20174;-62
2023/10/20 03:25:18;;;;;;;12.32;3.75;;;;;;;;;;5021517;28;20041;-62
2023/10/20 03:27:44;;;;;;;9.32;3.45;;;;;;;;;;5022180;28;20056;-62
2023/10/20 03:30:11;;;;;;;6.75;2.45;;;;;;;;;;5011472;28;21365;-62
2023/10/20 03:32:37;;;;;;;6.38;3.00;;;;;;;;;;5021142;28;20393;-62
2023/10/20 03:35:03;;;;;;;6.53;2.60;;;;;;;;;;5019362;28;20026;-62
2023/10/20 03:37:29;;;;;;;6.40;3.35;;;;;;;;;;5020981;28;20620;-61
2023/10/20 03:39:55;;;;;;;6.63;2.95;;;;;;;;;;5038638;28;20099;-62
2023/10/20 03:42:21;;;;;;;12.05;3.17;;;;;;;;;;5023742;28;20398;-62
2023/10/20 03:44:48;;;;;;;9.68;3.53;;;;;;;;;;5020518;28;20504;-62
2023/10/20 03:47:16;;;;;;;8.85;3.53;;;;;;;;;;5017780;28;20418;-63
2023/10/20 03:49:43;;;;;;;17.13;4.15;;;;;;;;;;5016935;28;20037;-62
2023/10/20 03:52:12;;;;;;;9.15;3.53;;;;;;;;;;5020432;28;20425;-62
2023/10/20 03:54:38;;;;;;;11.27;3.80;;;;;;;;;;5018521;28;20887;-63
2023/10/20 03:57:05;;;;;;;10.63;3.47;;;;;;;;;;5020250;28;20028;-63
2023/10/20 03:59:31;;;;;;;8.30;4.47;;;;;;;;;;5019543;28;20167;-62
2023/10/20 04:01:57;;;;;;;16.08;4.03;;;;;;;;;;5018993;28;20025;-62
2023/10/20 04:04:24;;;;;;;15.18;4.25;;;;;;;;;;5019085;28;20037;-63
2023/10/20 04:06:50;;;;;;;11.85;4.80;;;;;;;;;;5017489;28;20516;-62
2023/10/20 04:09:18;;;;;;;13.70;4.68;;;;;;;;;;5018120;28;20378;-61
2023/10/20 04:11:44;;;;;;;11.20;4.93;;;;;;;;;;5009096;28;20030;-62
2023/10/20 04:14:10;;;;;;;12.70;4.65;;;;;;;;;;5018040;28;20025;-63
2023/10/20 04:16:41;;;;;;;16.88;5.28;;;;;;;;;;5015831;28;20401;-62
2023/10/20 04:19:09;;;;;;;8.82;4.78;;;;;;;;;;5016392;28;20108;-62
2023/10/20 04:21:36;;;;;;;16.20;4.35;;;;;;;;;;5020331;28;20044;-62
2023/10/20 04:24:02;;;;;;;5.97;3.17;;;;;;;;;;5037980;28;20030;-61
2023/10/20 04:26:31;;;;;;;12.68;4.22;;;;;;;;;;5020992;28;20053;-63
2023/10/20 04:48:19;;;;;;;7.65;3.75;;;;;;;;;;5021132;28;20029;-62
2023/10/20 04:58:44;;;;;;;18.08;5.20;;;;;;;;;;5017891;28;20103;-62
2023/10/20 05:01:39;;;;;;;14.00;5.70;;;;;;;;;;5016907;28;20786;-62
2023/10/20 05:04:17;;;;;;;19.10;6.35;;;;;;;;;;5022281;28;20053;-63
2023/10/20 05:06:44;;;;;;;13.85;5.97;;;;;;;;;;5019817;28;20072;-62
2023/10/20 05:09:14;;;;;;;20.83;7.03;;;;;;;;;;5022325;28;20113;-62
2023/10/20 05:11:43;;;;;;;22.13;6.65;;;;;;;;;;5022502;28;20044;-62
2023/10/20 05:14:09;;;;;;;22.40;6.25;;;;;;;;;;5021382;28;20600;-64
2023/10/20 05:16:35;;;;;;;24.48;5.72;;;;;;;;;;5023842;28;20024;-62
2023/10/20 05:19:05;;;;;;;13.88;5.65;;;;;;;;;;5021876;28;20302;-62
2023/10/20 05:21:33;;;;;;;17.23;6.30;;;;;;;;;;5024928;28;20033;-62
2023/10/20 05:24:03;;;;;;;18.77;5.97;;;;;;;;;;5025265;28;20033;-62
2023/10/20 05:26:30;;;;;;;20.35;5.97;;;;;;;;;;5020953;28;20053;-62
2023/10/20 05:28:56;;;;;;;17.38;5.65;;;;;;;;;;5018827;28;20509;-62
2023/10/20 05:31:24;;;;;;;16.55;5.80;;;;;;;;;;5021695;28;20058;-62
2023/10/20 05:33:51;;;;;;;15.50;5.22;;;;;;;;;;5023714;28;20041;-62
2023/10/20 05:36:17;;;;;;;20.80;5.45;;;;;;;;;;5022904;28;20073;-62
2023/10/20 05:38:43;;;;;;;18.02;5.75;;;;;;;;;;5025931;28;20031;-62
2023/10/20 05:41:11;;;;;;;12.30;5.57;;;;;;;;;;5028200;28;20045;-62
2023/10/20 05:43:38;;;;;;;11.55;4.63;;;;;;;;;;5025362;28;20034;-62
2023/10/20 05:46:05;;;;;;;14.73;5.05;;;;;;;;;;5022725;28;20163;-62
2023/10/20 05:48:31;;;;;;;14.00;5.43;;;;;;;;;;5023504;28;20026;-62
2023/10/20 05:50:58;;;;;;;11.18;5.32;;;;;;;;;;5023636;28;20557;-63
2023/10/20 05:53:25;;;;;;;15.88;4.93;;;;;;;;;;5025187;28;20091;-62
2023/10/20 05:55:51;;;;;;;11.23;4.97;;;;;;;;;;5024694;28;20037;-61
2023/10/20 05:58:18;;;;;;;11.23;5.63;;;;;;;;;;5016071;28;20041;-62
2023/10/20 06:00:44;;;;;;;15.07;5.35;;;;;;;;;;5022755;28;20501;-62
2023/10/20 06:03:10;;;;;;;18.98;5.13;;;;;;;;;;5022438;28;20025;-62
2023/10/20 06:05:36;;;;;;;13.10;4.22;;;;;;;;;;5019034;28;20029;-62
2023/10/20 06:08:02;;;;;;;17.88;5.63;;;;;;;;;;5017596;28;20544;-62
2023/10/20 06:10:29;;;;;;;12.38;5.60;;;;;;;;;;5015723;28;20030;-62
2023/10/20 06:12:55;;;;;;;11.80;4.85;;;;;;;;;;5020965;28;20038;-61
2023/10/20 06:15:22;;;;;;;17.45;5.88;;;;;;;;;;5020248;28;20611;-63
2023/10/20 06:17:49;;;;;;;13.35;5.47;;;;;;;;;;5020089;28;20029;-62
2023/10/20 06:20:15;;;;;;;13.45;5.55;;;;;;;;;;5024036;28;20025;-62
2023/10/20 06:22:42;;;;;;;12.60;5.40;;;;;;;;;;5019042;28;20021;-62
2023/10/20 06:25:15;;;;;;;15.52;4.88;;;;;;;;;;5015402;28;20390;-63
2023/10/20 06:27:45;;;;;;;13.48;5.35;;;;;;;;;;5003056;28;20395;-62
2023/10/20 06:30:19;;;;;;;14.20;5.57;;;;;;;;;;5019330;28;20117;-62
2023/10/20 06:32:46;;;;;;;13.05;5.40;;;;;;;;;;5026378;28;20033;-62
2023/10/20 06:35:16;;;;;;;19.23;5.35;;;;;;;;;;5023900;28;20120;-62
2023/10/20 06:38:01;;;;;;;18.52;5.65;;;;;;;;;;5016511;28;20120;-62
2023/10/20 06:40:27;;;;;;;14.13;5.03;;;;;;;;;;5016279;28;20034;-62
2023/10/20 06:42:53;;;;;;;12.38;5.28;;;;;;;;;;5022836;28;20037;-62
2023/10/20 06:45:20;;;;;;;17.13;5.38;;;;;;;;;;5019925;28;20054;-62
2023/10/20 06:47:46;;;;;;;12.68;4.25;;;;;;;;;;5016534;28;20025;-62
2023/10/20 06:50:13;;;;;;;11.52;4.57;;;;;;;;;;5022186;28;20127;-62
2023/10/20 06:52:39;;;;;;;11.85;4.45;;;;;;;;;;5016862;28;20021;-62
2023/10/20 06:55:05;;;;;;;13.73;3.83;;;;;;;;;;5021065;28;20026;-62
2023/10/20 06:57:32;;;;;;;14.15;4.90;;;;;;;;;;5020292;28;20083;-62
2023/10/20 06:59:58;;;;;;;8.05;3.90;;;;;;;;;;5020823;28;20041;-62
2023/10/20 07:02:24;;;;;;;8.82;4.22;;;;;;;;;;5018106;28;20912;-62
2023/10/20 07:04:50;;;;;;;9.90;4.47;;;;;;;;;;5016338;28;20048;-62
2023/10/20 07:07:17;;;;;;;10.15;4.20;;;;;;;;;;5019190;28;20099;-62
2023/10/20 07:09:44;;;;;;;9.38;3.92;;;;;;;;;;5020527;28;20044;-62
2023/10/20 07:12:11;;;;;;;8.98;4.35;;;;;;;;;;5016331;28;20551;-62
2023/10/20 07:14:40;;;;;;;9.63;3.90;;;;;;;;;;5018839;28;20102;-62
2023/10/20 07:17:06;;;;;;;10.25;4.28;;;;;;;;;;5017010;28;20409;-61
2023/10/20 07:19:33;;;;;;;8.85;4.43;;;;;;;;;;5020189;28;20037;-62
2023/10/20 07:22:03;;;;;;;7.72;3.95;;;;;;;;;;5031019;28;20033;-62
2023/10/20 07:24:30;;;;;;;7.03;3.65;;;;;;;;;;5013978;28;20378;-62
2023/10/20 07:26:56;;;;;;;8.15;3.92;;;;;;;;;;5021840;28;20117;-62
2023/10/20 07:29:22;;;;;;;11.70;4.28;;;;;;;;;;5019924;28;20029;-62
2023/10/20 07:31:48;;;;;;;11.85;4.63;;;;;;;;;;5019765;28;20072;-62
2023/10/20 07:34:15;;;;;;;11.20;4.22;;;;;;;;;;5020427;28;20033;-62
2023/10/20 07:36:42;;;;;;;11.57;4.90;;;;;;;;;;5018434;28;20151;-62
2023/10/20 07:39:16;;;;;;;9.10;4.28;;;;;;;;;;5012094;28;20108;-62
2023/10/20 07:41:43;;;;;;;10.18;4.25;;;;;;;;;;5012934;28;20021;-62
2023/10/20 07:44:10;;;;;;;12.48;4.15;;;;;;;;;;5014333;28;20580;-62
2023/10/20 07:46:37;;;;;;;8.45;4.30;;;;;;;;;;5016718;28;20129;-62
2023/10/20 07:49:04;;;;;;;10.05;3.97;;;;;;;;;;5020734;28;20026;-62
2023/10/20 07:51:30;;;;;;;11.73;4.53;;;;;;;;;;5015262;28;20280;-62
2023/10/20 07:53:56;;;;;;;9.48;4.53;;;;;;;;;;5015203;28;20053;-62
2023/10/20 07:56:22;;;;;;;8.35;4.75;;;;;;;;;;5016841;28;20026;-62
2023/10/20 07:58:48;;;;;;;9.52;4.30;;;;;;;;;;5014188;28;20037;-61
2023/10/20 08:01:14;;;;;;;12.20;4.03;;;;;;;;;;5015927;28;20529;-62
2023/10/20 08:03:45;;;;;;;9.75;4.80;;;;;;;;;;5018934;28;20372;-62
2023/10/20 08:06:11;;;;;;;9.10;4.85;;;;;;;;;;4998466;28;20033;-62
2023/10/20 08:08:37;;;;;;;12.85;5.13;;;;;;;;;;5012935;28;20030;-61
2023/10/20 08:11:04;;;;;;;9.82;5.15;;;;;;;;;;5013432;28;20918;-61
2023/10/20 08:13:33;;;;;;;11.27;4.90;;;;;;;;;;5027292;28;20474;-61
2023/10/20 08:16:09;;;;;;;10.45;4.80;;;;;;;;;;5016137;28;20041;-61
2023/10/20 08:18:35;;;;;;;11.07;4.88;;;;;;;;;;5015731;28;20149;-61
2023/10/20 08:21:09;;;;;;;7.45;4.63;;;;;;;;;;5015570;28;20036;-62
2023/10/20 08:23:37;;;;;;;15.63;5.82;;;;;;;;;;5013883;28;20044;-62
2023/10/20 08:26:03;;;;;;;12.10;6.03;;;;;;;;;;5014051;28;20664;-62
2023/10/20 08:28:29;;;;;;;12.73;5.13;;;;;;;;;;5015431;28;20041;-62
2023/10/20 08:31:09;;;;;;;17.63;6.53;;;;;;;;;;5026631;28;20064;-63
2023/10/20 08:33:36;;;;;;;10.05;5.10;;;;;;;;;;5015953;28;20616;-62
2023/10/20 08:36:12;;;;;;;11.38;6.47;;;;;;;;;;5030807;28;20116;-61
2023/10/20 08:38:46;;;;;;;13.38;5.57;;;;;;;;;;5015329;28;21150;-62
2023/10/20 08:41:16;;;;;;;11.50;5.63;;;;;;;;;;5022642;28;20119;-67
2023/10/20 08:43:43;;;;;;;11.85;6.15;;;;;;;;;;5017777;28;20041;-62
2023/10/20 08:46:10;;;;;;;16.60;6.40;;;;;;;;;;5017926;28;20099;-62
2023/10/20 08:48:39;;;;;;;15.98;6.30;;;;;;;;;;5016967;28;20029;-62
2023/10/20 08:51:06;;;;;;;13.60;5.80;;;;;;;;;;5011840;28;20442;-62
2023/10/20 08:53:42;;;;;;;11.00;4.97;;;;;;;;;;5009738;28;20100;-62
2023/10/20 08:56:08;;;;;;;13.63;4.65;;;;;;;;;;5019387;28;20042;-61
2023/10/20 08:58:35;;;;;;;10.10;4.72;;;;;;;;;;5018519;28;20033;-62
2023/10/20 09:01:01;;;;;;;12.63;4.32;;;;;;;;;;5018537;28;20029;-61
2023/10/20 09:03:28;;;;;;;12.38;4.15;;;;;;;;;;5019130;28;20044;-62
2023/10/20 09:06:02;;;;;;;11.93;4.78;;;;;;;;;;5014649;28;20029;-62
2023/10/20 09:08:28;;;;;;;14.57;4.53;;;;;;;;;;5019526;28;20061;-61
2023/10/20 09:10:55;;;;;;;10.88;3.70;;;;;;;;;;5016707;28;20663;-61
2023/10/20 09:13:23;;;;;;;7.75;3.47;;;;;;;;;;5017758;28;20029;-61
2023/10/20 09:15:49;;;;;;;11.30;4.43;;;;;;;;;;5013516;28;20060;-62
2023/10/20 09:18:15;;;;;;;12.18;4.38;;;;;;;;;;5013026;28;20029;-62
2023/10/20 09:20:42;;;;;;;7.75;4.05;;;;;;;;;;5019938;28;20034;-61
2023/10/20 09:23:09;;;;;;;8.38;4.00;;;;;;;;;;5018552;28;20029;-61
2023/10/20 09:25:35;;;;;;;7.13;3.08;;;;;;;;;;5019553;28;20588;-62
2023/10/20 09:28:01;;;;;;;11.93;2.92;;;;;;;;;;5018561;28;20411;-61
2023/10/20 09:30:28;;;;;;;8.13;3.58;;;;;;;;;;5018582;28;20049;-61
2023/10/20 09:32:54;;;;;;;5.45;3.33;;;;;;;;;;5018502;28;20030;-61
2023/10/20 09:35:20;;;;;;;4.55;3.03;;;;;;;;;;5019796;28;20037;-62
2023/10/20 09:37:51;;;;;;;4.93;3.08;;;;;;;;;;5016921;28;20033;-60
2023/10/20 09:40:17;;;;;;;8.07;3.47;;;;;;;;;;5019915;28;20055;-63
2023/10/20 09:42:57;;;;;;;10.07;3.47;;;;;;;;;;5018317;28;20480;-61
2023/10/20 09:45:29;;;;;;;8.27;3.15;;;;;;;;;;5017786;28;20075;-61
2023/10/20 09:47:57;;;;;;;7.68;2.95;;;;;;;;;;5017855;28;20036;-61
2023/10/20 09:50:25;;;;;;;5.53;2.88;;;;;;;;;;5020827;28;20471;-61
2023/10/20 09:52:52;;;;;;;4.45;2.33;;;;;;;;;;5017122;28;20021;-61
2023/10/20 09:55:19;;;;;;;6.00;2.88;;;;;;;;;;5014503;28;20117;-60
2023/10/20 09:57:47;;;;;;;5.13;2.60;;;;;;;;;;5018615;28;20037;-61
2023/10/20 10:00:13;;;;;;;3.58;2.95;;;;;;;;;;5018177;28;20029;-61
2023/10/20 10:02:39;;;;;;;9.82;2.30;;;;;;;;;;5015752;28;20029;-60
2023/10/20 10:05:09;;;;;;;7.10;2.80;;;;;;;;;;5018868;28;20076;-60
2023/10/20 10:07:35;;;;;;;6.65;2.70;;;;;;;;;;5017715;28;20040;-61
2023/10/20 10:10:02;;;;;;;7.00;2.55;;;;;;;;;;5014950;28;20044;-62
2023/10/20 10:12:29;;;;;;;6.60;3.20;;;;;;;;;;5007290;28;21194;-62
2023/10/20 10:15:12;;;;;;;5.65;2.88;;;;;;;;;;5018584;28;20031;-62
2023/10/20 10:17:48;;;;;;;6.95;2.90;;;;;;;;;;5015700;28;20525;-62
2023/10/20 10:20:23;;;;;;;4.47;2.70;;;;;;;;;;5015213;28;20045;-62
2023/10/20 10:22:59;;;;;;;2.67;2.30;;;;;;;;;;5017029;28;20342;-63
2023/10/20 10:25:33;;;;;;;4.78;2.50;;;;;;;;;;5017063;28;20036;-63
2023/10/20 10:28:07;;;;;;;3.55;2.17;;;;;;;;;;5016960;28;20080;-64
2023/10/20 10:30:34;;;;;;;3.42;2.47;;;;;;;;;;5017671;28;20040;-61
2023/10/20 10:33:00;;;;;;;6.70;2.20;;;;;;;;;;5015621;28;20039;-62
2023/10/20 10:35:26;;;;;;;2.53;2.20;;;;;;;;;;5017525;28;20041;-62
2023/10/20 10:37:53;;;;;;;3.30;2.00;;;;;;;;;;5015267;28;20048;-62
2023/10/20 10:40:22;;;;;;;4.65;2.25;;;;;;;;;;5012352;28;20696;-63
2023/10/20 10:42:50;;;;;;;3.72;2.45;;;;;;;;;;5015240;28;20089;-60
2023/10/20 10:45:23;;;;;;;4.03;2.85;;;;;;;;;;5014388;28;20041;-61
2023/10/20 10:48:03;;;;;;;3.97;2.53;;;;;;;;;;5010231;28;20112;-63
2023/10/20 10:50:30;;;;;;;7.05;2.38;;;;;;;;;;5016376;28;20111;-60
2023/10/20 10:52:56;;;;;;;4.70;2.03;;;;;;;;;;5013752;28;20049;-61
2023/10/20 10:55:24;;;;;;;4.15;2.22;;;;;;;;;;5013439;28;20061;-62
2023/10/20 10:57:51;;;;;;;3.30;1.80;;;;;;;;;;5013527;28;20032;-62
2023/10/20 11:00:17;;;;;;;4.03;2.10;;;;;;;;;;5013587;28;20052;-61
2023/10/20 11:02:44;;;;;;;4.32;2.15;;;;;;;;;;5016939;28;20056;-61
2023/10/20 11:05:10;;;;;;;5.78;2.00;;;;;;;;;;5012555;28;20088;-61
2023/10/20 11:07:37;;;;;;;4.32;1.90;;;;;;;;;;5018095;28;20059;-59
2023/10/20 11:10:04;;;;;;;7.47;1.90;;;;;;;;;;5014927;28;20083;-62
2023/10/20 11:12:32;;;;;;;4.75;1.67;;;;;;;;;;5013878;28;20026;-62
2023/10/20 11:15:00;;;;;;;3.85;2.00;;;;;;;;;;5011844;28;20033;-63
2023/10/20 11:17:27;;;;;;;4.20;1.70;;;;;;;;;;5015274;28;20033;-61
2023/10/20 11:19:54;;;;;;;3.28;2.22;;;;;;;;;;5010977;28;20088;-61
2023/10/20 11:22:20;;;;;;;5.65;2.15;;;;;;;;;;5022417;28;20043;-69
2023/10/20 11:24:55;;;;;;;3.60;2.00;;;;;;;;;;5016822;28;20037;-72
2023/10/20 11:27:21;;;;;;;;;;;;;;;;;;5016026;28;20045;-72
2023/10/20 11:29:49;;;;;;;5.90;1.77;;;;;;;;;;5019638;28;20427;-71
2023/10/20 11:32:15;;;;;;;3.65;1.83;;;;;;;;;;5013152;28;20029;-62
2023/10/20 11:34:41;;;;;;;4.28;1.85;;;;;;;;;;5013437;28;20034;-69
2023/10/20 11:37:08;;;;;;;5.80;2.10;;;;;;;;;;5016117;28;20025;-70
2023/10/20 11:39:36;;;;;;;5.03;1.63;;;;;;;;;;5015636;28;20025;-70
2023/10/20 11:42:03;;;;;;;7.45;2.10;;;;;;;;;;5017201;28;20116;-69
2023/10/20 11:44:29;;;;;;;1.92;1.60;;;;;;;;;;5013451;28;20036;-71
2023/10/20 11:46:55;;;;;;;9.00;2.05;;;;;;;;;;5012303;28;20029;-71
2023/10/20 11:49:22;;;;;;;4.13;1.75;;;;;;;;;;5024253;28;20029;-70
2023/10/20 11:51:48;;;;;;;5.85;1.92;;;;;;;;;;5020619;28;20034;-70
2023/10/20 11:54:15;;;;;;;5.13;1.85;;;;;;;;;;5022675;28;20025;-69
2023/10/20 11:56:41;;;;;;;5.43;1.65;;;;;;;;;;5011418;28;20444;-71
2023/10/20 11:59:07;;;;;;;5.78;2.15;;;;;;;;;;5019180;28;20033;-68
2023/10/20 12:01:34;;;;;;;4.32;2.10;;;;;;;;;;5021879;28;20045;-69
2023/10/20 12:04:00;;;;;;;1.95;1.70;;;;;;;;;;5019387;28;20029;-68
2023/10/20 12:06:27;;;;;;;5.18;1.90;;;;;;;;;;5017125;28;20037;-67
2023/10/20 12:08:53;;;;;;;5.97;2.20;;;;;;;;;;5021893;28;20056;-67
2023/10/20 12:11:19;;;;;;;5.82;2.30;;;;;;;;;;5019639;28;20029;-67
2023/10/20 12:13:48;;;;;;;6.55;1.90;;;;;;;;;;5021192;28;20427;-69
2023/10/20 12:16:19;;;;;;;7.88;2.05;;;;;;;;;;5019891;28;20033;-68
2023/10/20 12:18:48;;;;;;;8.13;1.80;;;;;;;;;;5023631;28;20371;-67
2023/10/20 12:21:14;;;;;;;3.30;1.77;;;;;;;;;;5022520;28;20446;-69
2023/10/20 12:23:41;;;;;;;4.28;1.75;;;;;;;;;;5020075;28;20091;-69
2023/10/20 12:26:07;;;;;;;6.00;2.08;;;;;;;;;;5036372;28;20033;-68
2023/10/20 12:28:33;;;;;;;6.65;2.10;;;;;;;;;;5017209;28;20029;-68
2023/10/20 12:30:59;;;;;;;6.63;2.15;;;;;;;;;;5023609;28;20493;-69
2023/10/20 12:33:27;;;;;;;3.92;1.90;;;;;;;;;;5018981;28;20057;-68
2023/10/20 12:35:57;;;;;;;6.10;2.78;;;;;;;;;;5021318;28;20468;-66
2023/10/20 12:38:23;;;;;;;6.32;1.95;;;;;;;;;;5019757;28;20029;-68
2023/10/20 12:40:49;;;;;;;4.90;2.00;;;;;;;;;;5018762;28;20033;-68
2023/10/20 12:43:16;;;;;;;10.43;2.45;;;;;;;;;;5019336;28;20060;-67
2023/10/20 12:45:42;;;;;;;3.75;1.95;;;;;;;;;;5018732;28;20689;-68
2023/10/20 12:48:08;;;;;;;6.53;1.98;;;;;;;;;;5029010;28;20021;-68
2023/10/20 12:50:36;;;;;;;8.90;2.30;;;;;;;;;;5023987;28;20047;-69
2023/10/20 12:53:07;;;;;;;7.47;2.33;;;;;;;;;;5040795;28;20421;-68
2023/10/20 12:55:34;;;;;;;7.53;2.42;;;;;;;;;;5025285;28;20378;-68
2023/10/20 12:58:02;;;;;;;4.25;2.13;;;;;;;;;;5036156;28;20033;-68
2023/10/20 13:00:28;;;;;;;7.07;2.10;;;;;;;;;;5022686;28;20039;-68
2023/10/20 13:02:54;;;;;;;7.80;2.22;;;;;;;;;;5021444;28;20128;-69
2023/10/20 13:05:23;;;;;;;8.55;2.72;;;;;;;;;;5010587;28;20135;-69
2023/10/20 13:07:53;;;;;;;8.57;2.20;;;;;;;;;;5019051;28;20021;-70
2023/10/20 13:10:20;;;;;;;8.63;2.38;;;;;;;;;;5016052;28;20036;-69
2023/10/20 13:12:47;;;;;;;5.22;2.10;;;;;;;;;;5018908;28;20025;-70
2023/10/20 13:15:13;;;;;;;5.90;2.08;;;;;;;;;;5033225;28;20025;-69
2023/10/20 13:17:39;;;;;;;8.68;1.95;;;;;;;;;;5019581;28;20544;-70
2023/10/20 13:20:06;;;;;;;8.27;2.90;;;;;;;;;;5018959;28;20044;-69
2023/10/20 13:22:32;;;;;;;7.78;3.10;;;;;;;;;;5020283;28;20520;-69
2023/10/20 13:24:58;;;;;;;5.13;2.60;;;;;;;;;;5017960;28;20350;-70
2023/10/20 13:27:25;;;;;;;6.55;1.90;;;;;;;;;;5018034;28;20498;-70
2023/10/20 13:29:51;;;;;;;6.25;1.98;;;;;;;;;;5022922;28;20469;-69
2023/10/20 13:32:17;;;;;;;10.73;3.38;;;;;;;;;;5020580;28;20112;-70
2023/10/20 13:34:43;;;;;;;8.75;2.13;;;;;;;;;;5020401;28;20025;-70
2023/10/20 13:37:09;;;;;;;8.20;3.40;;;;;;;;;;5028444;28;20481;-69
2023/10/20 13:39:36;;;;;;;5.68;1.85;;;;;;;;;;5021117;28;20021;-70
2023/10/20 13:42:02;;;;;;;4.03;2.00;;;;;;;;;;5017836;28;20481;-72
2023/10/20 13:44:28;;;;;;;7.75;2.20;;;;;;;;;;5018098;28;20063;-71
2023/10/20 13:46:54;;;;;;;12.73;2.63;;;;;;;;;;5016750;28;20199;-71
2023/10/20 13:49:21;;;;;;;9.52;2.28;;;;;;;;;;5017245;28;20026;-71
2023/10/20 13:51:47;;;;;;;5.55;2.08;;;;;;;;;;5018743;28;20034;-70
2023/10/20 13:54:13;;;;;;;4.88;2.47;;;;;;;;;;5017847;28;20108;-70
2023/10/20 13:56:39;;;;;;;5.28;1.77;;;;;;;;;;5016092;28;20070;-72
2023/10/20 13:59:05;;;;;;;5.05;2.13;;;;;;;;;;5017892;28;20040;-71
2023/10/20 14:01:31;;;;;;;6.95;2.13;;;;;;;;;;5018130;28;20037;-72
2023/10/20 14:03:58;;;;;;;6.90;1.70;;;;;;;;;;5016441;28;20487;-71
2023/10/20 14:06:24;;;;;;;7.30;1.90;;;;;;;;;;5017513;28;20117;-71
2023/10/20 14:08:50;;;;;;;2.30;1.48;;;;;;;;;;5018085;28;20040;-73
2023/10/20 14:11:18;;;;;;;6.03;1.90;;;;;;;;;;5015529;28;20349;-70
2023/10/20 14:13:45;;;;;;;3.10;1.58;;;;;;;;;;5020726;28;20055;-69
2023/10/20 14:16:11;;;;;;;7.55;1.85;;;;;;;;;;5019652;28;20025;-69
2023/10/20 14:18:37;;;;;;;5.60;1.92;;;;;;;;;;5019418;28;20037;-68
2023/10/20 14:21:03;;;;;;;2.00;1.60;;;;;;;;;;5017677;28;21060;-71
2023/10/20 14:23:31;;;;;;;3.85;1.73;;;;;;;;;;5017386;28;20116;-71
2023/10/20 14:25:58;;;;;;;7.70;1.92;;;;;;;;;;5018708;28;20033;-71
2023/10/20 14:28:31;;;;;;;5.60;2.13;;;;;;;;;;5020148;28;20545;-66
2023/10/20 14:30:58;;;;;;;3.72;1.67;;;;;;;;;;5021848;28;20029;-70
2023/10/20 14:33:24;;;;;;;8.25;2.88;;;;;;;;;;5020453;28;20447;-67
2023/10/20 14:35:50;;;;;;;5.03;2.03;;;;;;;;;;5017717;28;20266;-70
2023/10/20 14:38:16;;;;;;;7.95;3.00;;;;;;;;;;5014994;28;20044;-69
2023/10/20 14:40:44;;;;;;;6.65;2.10;;;;;;;;;;5015089;28;20416;-68
2023/10/20 14:43:11;;;;;;;4.60;2.05;;;;;;;;;;5014901;28;20440;-69
2023/10/20 14:45:37;;;;;;;8.70;2.35;;;;;;;;;;5015815;28;20112;-69
2023/10/20 14:48:03;;;;;;;3.60;1.90;;;;;;;;;;5015886;28;20862;-69
2023/10/20 14:50:29;;;;;;;6.03;2.15;;;;;;;;;;5022906;28;20314;-69
2023/10/20 14:52:55;;;;;;;6.68;2.30;;;;;;;;;;5031906;28;20111;-68
2023/10/20 14:55:22;;;;;;;5.22;2.80;;;;;;;;;;5021266;28;20032;-70
2023/10/20 14:57:49;;;;;;;5.93;2.10;;;;;;;;;;5017126;28;20037;-68
2023/10/20 15:00:15;;;;;;;7.28;1.90;;;;;;;;;;5013652;28;20030;-68
2023/10/20 15:02:41;;;;;;;6.70;2.00;;;;;;;;;;5018282;28;20037;-69
2023/10/20 15:05:08;;;;;;;6.30;2.10;;;;;;;;;;5018835;28;20040;-69
2023/10/20 15:07:36;;;;;;;9.95;2.10;;;;;;;;;;5017706;28;20063;-69